ENTO

Sandefjord Torp Airport

Torp, Norway
METAR ENTO 191620Z 25009KT CAVOK 01/M05 Q1010 NOSIG
Observed Flight Rules
Jan-19 @ 16:20 UTC (22 minutes ago) Visual Flight Rules
Wind Visibility Clouds
250° at 9 knots 10,000+ meters
  • Clear skies
Temperatures Readings
Current 1°C / 34°F
Dewpoint -5°C / 23°F
Humidity 65%
Altimeter 29.82" Hg
Pressure 1009.92 hPa
Elevation 88
METAR ENTO 191620Z 25009KT CAVOK 01/M05 Q1010 NOSIG
Observed Flight Rules
Jan-19 @ 16:20 UTC
(22 minutes ago)
VFR
Wind Visibility
250° at 9 knots 10,000+ meters
Clouds
  • Clear skies
Temperature Dewpoint
1°C / 34°F -5°C / 23°F
Humidity Altimeter Pressure
65% 29.82" Hg 1009.92 hPa